createdAt,value
2023-04-01T00:01:28.149Z,67.58
2023-04-01T00:03:55.487Z,67.46
2023-04-01T00:06:22.565Z,67.46
2023-04-01T00:08:50.082Z,67.45
2023-04-01T00:11:20.563Z,67.43
2023-04-01T00:13:48.150Z,67.73
2023-04-01T00:16:21.665Z,67.46
2023-04-01T00:18:51.537Z,67.60
2023-04-01T00:21:19.983Z,67.58
2023-04-01T00:23:47.100Z,67.48
2023-04-01T00:26:15.148Z,67.87
2023-04-01T00:28:42.623Z,67.72
2023-04-01T00:31:11.253Z,67.64
2023-04-01T00:33:39.419Z,67.39
2023-04-01T00:36:12.354Z,67.52
2023-04-01T00:38:40.064Z,67.63
2023-04-01T00:41:07.501Z,67.40
2023-04-01T00:43:35.503Z,67.70
2023-04-01T00:46:02.443Z,67.75
2023-04-01T00:48:34.863Z,67.75
2023-04-01T00:51:11.055Z,67.83
2023-04-01T00:53:44.946Z,67.62
2023-04-01T00:56:28.571Z,67.67
2023-04-01T00:59:17.044Z,67.73
2023-04-01T01:01:43.833Z,67.63
2023-04-01T01:04:25.240Z,67.40
2023-04-01T01:07:04.341Z,67.88
2023-04-01T01:10:15.794Z,67.81
2023-04-01T01:13:23.511Z,68.01
2023-04-01T01:16:07.643Z,68.00
2023-04-01T01:19:10.978Z,67.91
2023-04-01T01:22:14.839Z,67.85
2023-04-01T01:24:57.306Z,67.95
2023-04-01T01:27:24.479Z,67.88
2023-04-01T01:30:11.802Z,67.98
2023-04-01T01:33:10.341Z,67.91
2023-04-01T01:35:50.418Z,67.59
2023-04-01T01:38:23.073Z,68.01
2023-04-01T01:40:54.705Z,67.75
2023-04-01T01:43:31.395Z,67.74
2023-04-01T01:46:04.227Z,67.69
2023-04-01T01:48:34.072Z,67.73
2023-04-01T01:51:01.579Z,67.79
2023-04-01T01:53:28.372Z,67.70
2023-04-01T01:55:55.166Z,67.84
2023-04-01T01:58:46.912Z,67.68
2023-04-01T02:01:20.351Z,67.66
2023-04-01T02:03:48.831Z,67.79
2023-04-01T02:06:20.302Z,67.85
2023-04-01T02:08:53.926Z,67.54
2023-04-01T02:11:46.572Z,67.73
2023-04-01T02:14:19.090Z,67.70
2023-04-01T02:17:00.284Z,67.79
2023-04-01T02:19:38.709Z,67.59
2023-04-01T02:22:12.777Z,67.59
2023-04-01T02:24:42.350Z,67.53
2023-04-01T02:27:11.654Z,67.76
2023-04-01T02:29:39.380Z,67.72
2023-04-01T02:32:07.471Z,67.71
2023-04-01T02:34:34.822Z,67.81
2023-04-01T02:37:01.852Z,67.67
2023-04-01T02:39:28.849Z,67.72
2023-04-01T02:41:55.864Z,67.93
2023-04-01T02:44:23.093Z,67.82
2023-04-01T02:46:49.949Z,67.75
2023-04-01T02:49:16.846Z,67.70
2023-04-01T02:51:43.614Z,67.76
2023-04-01T02:54:10.377Z,67.73
2023-04-01T02:56:37.167Z,67.69
2023-04-01T02:59:04.137Z,67.67
2023-04-01T03:01:31.025Z,67.54
2023-04-01T03:03:58.137Z,67.95
2023-04-01T03:06:25.328Z,67.99
2023-04-01T03:08:52.100Z,67.60
2023-04-01T03:11:18.873Z,67.77
2023-04-01T03:13:45.805Z,67.79
2023-04-01T03:16:12.577Z,68.00
2023-04-01T03:18:39.385Z,67.75
2023-04-01T03:21:21.222Z,67.81
2023-04-01T03:23:48.055Z,67.81
2023-04-01T03:26:15.900Z,67.70
2023-04-01T03:28:43.664Z,67.91
2023-04-01T03:31:11.333Z,67.74
2023-04-01T03:33:38.651Z,67.78
2023-04-01T03:36:07.353Z,67.94
2023-04-01T03:38:37.505Z,67.82
2023-04-01T03:41:04.405Z,67.90
2023-04-01T03:43:31.185Z,67.84
2023-04-01T03:45:58.986Z,67.75
2023-04-01T03:48:26.853Z,67.54
2023-04-01T03:50:53.755Z,68.11
2023-04-01T03:53:20.742Z,67.92
2023-04-01T03:55:47.739Z,67.76
2023-04-01T03:58:14.805Z,67.95
2023-04-01T04:00:41.664Z,67.85
2023-04-01T04:03:08.561Z,67.89
2023-04-01T04:05:35.768Z,67.95
2023-04-01T04:08:03.601Z,67.87
2023-04-01T04:10:30.701Z,68.00
2023-04-01T04:12:57.611Z,67.96
2023-04-01T04:15:24.441Z,68.04
2023-04-01T04:17:51.536Z,68.03
2023-04-01T04:20:18.436Z,68.19
2023-04-01T04:22:45.421Z,68.11
2023-04-01T04:25:12.184Z,68.18
2023-04-01T04:27:39.053Z,68.17
2023-04-01T04:30:07.864Z,68.20
2023-04-01T04:32:34.649Z,68.17
2023-04-01T04:35:01.434Z,68.26
2023-04-01T04:37:28.646Z,68.23
2023-04-01T04:39:55.656Z,68.39
2023-04-01T04:42:22.484Z,68.10
2023-04-01T04:44:49.269Z,68.30
2023-04-01T04:47:16.111Z,68.31
2023-04-01T04:49:42.912Z,68.39
2023-04-01T04:52:09.676Z,68.72
2023-04-01T04:54:36.528Z,68.38
2023-04-01T04:57:03.345Z,68.31
2023-04-01T04:59:30.167Z,68.45
2023-04-01T05:01:56.932Z,68.46
2023-04-01T05:04:23.676Z,68.40
2023-04-01T05:06:50.651Z,68.58
2023-04-01T05:09:17.411Z,68.32
2023-04-01T05:11:44.286Z,68.49
2023-04-01T05:14:16.591Z,68.48
2023-04-01T05:16:43.592Z,68.55
2023-04-01T05:19:10.527Z,68.57
2023-04-01T05:21:37.315Z,68.75
2023-04-01T05:24:04.253Z,68.50
2023-04-01T05:26:31.548Z,68.76
2023-04-01T05:28:58.296Z,68.81
2023-04-01T05:31:25.358Z,68.67
2023-04-01T05:33:52.408Z,68.79
2023-04-01T05:36:19.287Z,68.83
2023-04-01T05:38:48.971Z,68.71
2023-04-01T05:41:16.275Z,68.73
2023-04-01T05:43:43.344Z,68.44
2023-04-01T05:46:10.810Z,68.88
2023-04-01T05:48:38.014Z,68.93
2023-04-01T05:51:05.309Z,68.99
2023-04-01T05:53:32.204Z,69.25
2023-04-01T05:56:04.516Z,69.02
2023-04-01T05:58:31.615Z,69.06
2023-04-01T06:01:11.478Z,69.04
2023-04-01T06:03:42.876Z,69.28
2023-04-01T06:06:28.015Z,69.17
2023-04-01T06:08:59.087Z,69.19
2023-04-01T06:11:50.205Z,69.38
2023-04-01T06:15:04.804Z,69.44
2023-04-01T06:18:03.328Z,69.50
2023-04-01T06:20:41.109Z,69.47
2023-04-01T06:23:55.732Z,69.48
2023-04-01T06:26:38.752Z,69.74
2023-04-01T06:29:44.843Z,69.42
2023-04-01T06:32:31.058Z,69.68
2023-04-01T06:35:16.948Z,69.63
2023-04-01T06:38:06.807Z,69.74
2023-04-01T06:41:05.899Z,69.66
2023-04-01T06:44:07.189Z,69.64
2023-04-01T06:46:49.348Z,69.62
2023-04-01T06:50:06.654Z,69.45
2023-04-01T06:53:02.534Z,69.64
2023-04-01T06:55:40.810Z,69.69
2023-04-01T06:58:20.941Z,69.84
2023-04-01T07:00:52.384Z,69.79
2023-04-01T07:03:33.957Z,69.66
2023-04-01T07:06:09.186Z,69.51
2023-04-01T07:08:41.571Z,69.41
2023-04-01T07:11:12.538Z,69.43
2023-04-01T07:14:01.851Z,69.32
2023-04-01T07:16:51.179Z,69.38
2023-04-01T07:19:28.087Z,69.54
2023-04-01T07:22:36.212Z,69.50
2023-04-01T07:25:26.111Z,69.45
2023-04-01T07:28:07.294Z,69.12
2023-04-01T07:31:01.359Z,69.13
2023-04-01T07:34:03.170Z,69.03
2023-04-01T07:36:50.997Z,68.73
2023-04-01T07:39:30.385Z,68.31
2023-04-01T07:42:08.464Z,68.22
2023-04-01T07:44:51.454Z,68.12
2023-04-01T07:47:46.681Z,68.23
2023-04-01T07:50:29.125Z,67.85
2023-04-01T07:53:15.900Z,68.04
2023-04-01T07:56:07.453Z,67.97
2023-04-01T07:59:24.651Z,68.07
2023-04-01T08:02:16.996Z,68.18
2023-04-01T08:05:24.964Z,68.28
2023-04-01T08:08:41.420Z,68.04
2023-04-01T08:11:43.569Z,67.87
2023-04-01T08:14:35.023Z,67.81
2023-04-01T08:17:45.940Z,67.58
2023-04-01T08:20:43.710Z,67.38
2023-04-01T08:23:32.232Z,67.59
2023-04-01T08:26:27.527Z,67.37
2023-04-01T08:29:14.201Z,67.36
2023-04-01T08:31:56.955Z,67.09
2023-04-01T08:34:38.360Z,66.78
2023-04-01T08:37:11.005Z,66.71
2023-04-01T08:39:59.346Z,66.39
2023-04-01T08:42:52.442Z,66.56
2023-04-01T08:45:45.405Z,66.68
2023-04-01T08:48:49.769Z,66.40
2023-04-01T08:52:04.694Z,66.60
2023-04-01T08:54:55.388Z,65.85
2023-04-01T08:58:03.660Z,65.81
2023-04-01T09:00:53.263Z,65.61
2023-04-01T09:03:42.377Z,65.73
2023-04-01T09:06:36.545Z,65.86
2023-04-01T09:09:36.145Z,65.69
2023-04-01T09:12:15.704Z,64.96
2023-04-01T09:15:12.847Z,64.95
2023-04-01T09:18:39.385Z,64.93
2023-04-01T09:21:34.282Z,65.18
2023-04-01T09:24:53.981Z,64.96
2023-04-01T09:27:46.308Z,64.87
2023-04-01T09:31:01.631Z,65.12
2023-04-01T09:34:07.606Z,64.74
2023-04-01T09:36:55.808Z,64.49
2023-04-01T09:39:56.216Z,64.76
2023-04-01T09:43:03.540Z,65.18
2023-04-01T09:46:10.914Z,65.04
2023-04-01T09:48:54.730Z,64.79
2023-04-01T09:51:43.802Z,64.45
2023-04-01T09:54:41.317Z,64.24
2023-04-01T09:57:42.074Z,64.34
2023-04-01T10:00:51.158Z,64.21
2023-04-01T10:04:08.015Z,64.37
2023-04-01T10:07:15.263Z,64.19
2023-04-01T10:10:38.437Z,64.64
2023-04-01T10:13:30.397Z,64.36
2023-04-01T10:16:22.122Z,64.34
2023-04-01T10:19:51.657Z,64.42
2023-04-01T10:22:46.705Z,64.25
2023-04-01T10:25:25.592Z,65.17
2023-04-01T10:28:30.871Z,64.48
2023-04-01T10:31:38.181Z,63.94
2023-04-01T10:34:17.161Z,63.35
2023-04-01T10:36:58.951Z,63.40
2023-04-01T10:39:34.139Z,63.24
2023-04-01T10:42:15.641Z,63.47
2023-04-01T10:45:39.816Z,63.56
2023-04-01T10:48:22.565Z,63.18
2023-04-01T10:51:29.452Z,63.59
2023-04-01T10:54:22.520Z,63.32
2023-04-01T10:57:09.697Z,63.30
2023-04-01T11:00:19.909Z,63.35
2023-04-01T11:03:33.461Z,63.15
2023-04-01T11:06:44.702Z,63.14
2023-04-01T11:09:31.648Z,63.18
2023-04-01T11:12:37.219Z,63.12
2023-04-01T11:15:47.065Z,63.17
2023-04-01T11:18:52.126Z,62.96
2023-04-01T11:21:55.980Z,62.86
2023-04-01T11:25:06.675Z,62.72
2023-04-01T11:28:13.289Z,63.05
2023-04-01T11:31:35.727Z,63.01
2023-04-01T11:34:21.983Z,63.03
2023-04-01T11:37:05.692Z,63.28
2023-04-01T11:39:50.299Z,63.24
2023-04-01T11:42:55.278Z,63.43
2023-04-01T11:46:06.519Z,63.36
2023-04-01T11:49:04.632Z,63.48
2023-04-01T11:51:44.084Z,63.48
2023-04-01T11:54:59.547Z,63.51
2023-04-01T11:58:06.084Z,63.58
2023-04-01T12:01:10.530Z,63.71
2023-04-01T12:04:26.047Z,63.60
2023-04-01T12:07:50.550Z,63.72
2023-04-01T12:10:28.197Z,63.45
2023-04-01T12:13:06.336Z,63.40
2023-04-01T12:16:05.915Z,63.30
2023-04-01T12:19:03.855Z,62.96
2023-04-01T12:22:01.073Z,62.69
2023-04-01T12:25:38.368Z,62.61
2023-04-01T12:29:00.623Z,62.95
2023-04-01T12:32:03.778Z,62.94
2023-04-01T12:35:11.977Z,63.10
2023-04-01T12:38:27.031Z,63.19
2023-04-01T12:41:10.294Z,63.39
2023-04-01T12:44:04.297Z,63.36
2023-04-01T12:47:10.583Z,63.75
2023-04-01T12:50:22.887Z,63.87
2023-04-01T12:53:11.306Z,64.08
2023-04-01T12:55:43.977Z,63.97
2023-04-01T12:58:56.545Z,64.19
2023-04-01T13:02:12.404Z,64.17
2023-04-01T13:05:16.920Z,63.89
2023-04-01T13:07:59.871Z,63.66
2023-04-01T13:11:19.036Z,64.11
2023-04-01T13:14:30.809Z,64.02
2023-04-01T13:17:21.835Z,63.95
2023-04-01T13:20:06.341Z,63.96
2023-04-01T13:23:03.367Z,63.87
2023-04-01T13:26:02.223Z,63.99
2023-04-01T13:29:20.606Z,64.26
2023-04-01T13:32:27.664Z,64.53
2023-04-01T13:35:40.251Z,64.87
2023-04-01T13:38:31.860Z,64.96
2023-04-01T13:42:00.518Z,65.45
2023-04-01T13:44:46.617Z,65.12
2023-04-01T13:47:50.330Z,65.02
2023-04-01T13:50:52.508Z,65.07
2023-04-01T13:53:54.233Z,65.09
2023-04-01T13:56:55.807Z,65.43
2023-04-01T14:00:11.829Z,65.91
2023-04-01T14:02:41.570Z,65.69
2023-04-01T14:05:45.935Z,65.85
2023-04-01T14:08:28.616Z,65.66
2023-04-01T14:11:42.301Z,65.64
2023-04-01T14:14:52.675Z,65.63
2023-04-01T14:17:45.434Z,65.72
2023-04-01T14:20:23.666Z,65.76
2023-04-01T14:23:32.531Z,65.55
2023-04-01T14:26:27.709Z,65.92
2023-04-01T14:29:11.593Z,66.08
2023-04-01T14:31:58.260Z,65.97
2023-04-01T14:35:02.412Z,65.92
2023-04-01T14:38:16.025Z,66.16
2023-04-01T14:41:18.261Z,66.13
2023-04-01T14:44:19.912Z,66.25
2023-04-01T14:47:23.945Z,66.37
2023-04-01T14:50:06.764Z,66.44
2023-04-01T14:52:39.156Z,66.30
2023-04-01T14:55:35.889Z,66.06
2023-04-01T14:58:13.483Z,66.15
2023-04-01T15:01:16.305Z,66.09
2023-04-01T15:04:10.899Z,66.08
2023-04-01T15:07:00.248Z,66.08
2023-04-01T15:09:54.711Z,66.23
2023-04-01T15:12:45.699Z,66.31
2023-04-01T15:16:22.031Z,66.47
2023-04-01T15:19:20.380Z,66.77
2023-04-01T15:22:29.620Z,66.35
2023-04-01T15:25:41.371Z,66.78
2023-04-01T15:28:22.892Z,66.80
2023-04-01T15:31:01.545Z,66.72
2023-04-01T15:33:37.036Z,66.66
2023-04-01T15:36:47.816Z,66.75
2023-04-01T15:39:32.535Z,67.03
2023-04-01T15:42:40.438Z,66.41
2023-04-01T15:45:52.996Z,66.59
2023-04-01T15:48:44.937Z,66.83
2023-04-01T15:51:46.140Z,67.02
2023-04-01T15:54:28.967Z,66.93
2023-04-01T15:57:13.765Z,66.71
2023-04-01T16:00:27.625Z,66.53
2023-04-01T16:03:30.978Z,66.83
2023-04-01T16:06:41.607Z,67.07
2023-04-01T16:09:30.004Z,66.85
2023-04-01T16:12:19.538Z,67.05
2023-04-01T16:15:27.948Z,66.96
2023-04-01T16:18:27.464Z,67.10
2023-04-01T16:21:30.339Z,67.19
2023-04-01T16:24:06.215Z,67.39
2023-04-01T16:26:54.720Z,67.18
2023-04-01T16:29:52.196Z,67.24
2023-04-01T16:33:11.433Z,67.10
2023-04-01T16:36:01.495Z,67.39
2023-04-01T16:38:31.182Z,67.06
2023-04-01T16:41:04.017Z,66.98
2023-04-01T16:43:57.889Z,67.07
2023-04-01T16:46:41.617Z,66.80
2023-04-01T16:49:40.901Z,67.19
2023-04-01T16:52:10.350Z,66.88
2023-04-01T16:55:16.340Z,66.57
2023-04-01T16:57:57.616Z,67.05
2023-04-01T17:00:48.783Z,67.01
2023-04-01T17:03:47.982Z,67.11
2023-04-01T17:06:36.945Z,67.10
2023-04-01T17:09:35.846Z,67.01
2023-04-01T17:12:57.197Z,66.93
2023-04-01T17:15:29.979Z,67.19
2023-04-01T17:18:10.898Z,67.20
2023-04-01T17:21:00.872Z,67.23
2023-04-01T17:23:52.011Z,66.76
2023-04-01T17:26:36.787Z,67.09
2023-04-01T17:29:19.097Z,66.76
2023-04-01T17:32:02.356Z,67.08
2023-04-01T17:34:42.001Z,66.96
2023-04-01T17:37:49.445Z,67.02
2023-04-01T17:40:54.758Z,67.36
2023-04-01T17:43:49.519Z,67.29
2023-04-01T17:47:12.531Z,67.09
2023-04-01T17:50:06.068Z,67.29
2023-04-01T17:52:43.150Z,67.50
2023-04-01T17:55:49.231Z,67.37
2023-04-01T17:58:47.717Z,67.08
2023-04-01T18:01:34.792Z,66.89
2023-04-01T18:04:40.066Z,67.54
2023-04-01T18:07:30.017Z,67.62
2023-04-01T18:11:00.911Z,67.75
2023-04-01T18:13:54.560Z,67.40
2023-04-01T18:16:36.366Z,67.57
2023-04-01T18:19:28.084Z,67.60
2023-04-01T18:22:30.332Z,67.61
2023-04-01T18:25:14.222Z,67.55
2023-04-01T18:28:17.765Z,67.83
2023-04-01T18:30:54.482Z,67.74
2023-04-01T18:33:47.352Z,67.25
2023-04-01T18:36:56.665Z,67.17
2023-04-01T18:39:41.648Z,67.10
2023-04-01T18:42:44.422Z,67.37
2023-04-01T18:45:36.404Z,67.54
2023-04-01T18:48:50.289Z,67.26
2023-04-01T18:51:23.996Z,67.29
2023-04-01T18:54:18.694Z,67.50
2023-04-01T18:56:46.728Z,67.49
2023-04-01T18:59:30.179Z,67.26
2023-04-01T19:02:37.445Z,67.21
2023-04-01T19:05:10.814Z,67.03
2023-04-01T19:07:52.921Z,67.36
2023-04-01T19:10:58.897Z,67.62
2023-04-01T19:13:28.246Z,67.58
2023-04-01T19:16:48.243Z,67.46
2023-04-01T19:19:34.320Z,67.09
2023-04-01T19:22:39.962Z,67.44
2023-04-01T19:25:28.271Z,67.48
2023-04-01T19:28:17.079Z,67.43
2023-04-01T19:30:56.461Z,67.13
2023-04-01T19:34:04.604Z,67.52
2023-04-01T19:37:06.426Z,67.02
2023-04-01T19:39:56.344Z,67.25
2023-04-01T19:43:05.137Z,67.39
2023-04-01T19:45:49.058Z,67.50
2023-04-01T19:48:47.418Z,67.37
2023-04-01T19:51:53.508Z,67.21
2023-04-01T19:54:57.839Z,67.21
2023-04-01T19:58:06.536Z,67.03
2023-04-01T20:00:51.321Z,67.40
2023-04-01T20:03:52.050Z,67.40
2023-04-01T20:06:30.548Z,67.27
2023-04-01T20:09:43.286Z,67.29
2023-04-01T20:12:48.501Z,67.38
2023-04-01T20:15:22.739Z,67.56
2023-04-01T20:17:49.653Z,67.47
2023-04-01T20:20:27.394Z,67.04
2023-04-01T20:23:12.297Z,67.19
2023-04-01T20:25:55.757Z,67.41
2023-04-01T20:29:04.125Z,67.57
2023-04-01T20:31:48.401Z,67.53
2023-04-01T20:34:45.426Z,67.29
2023-04-01T20:37:52.207Z,67.66
2023-04-01T20:40:48.484Z,67.43
2023-04-01T20:43:48.123Z,67.23
2023-04-01T20:46:47.977Z,67.08
2023-04-01T20:49:36.731Z,67.18
2023-04-01T20:52:20.977Z,67.17
2023-04-01T20:55:02.622Z,67.44
2023-04-01T20:57:40.005Z,67.33
2023-04-01T21:00:38.611Z,67.55
2023-04-01T21:03:39.584Z,67.33
2023-04-01T21:06:46.725Z,67.35
2023-04-01T21:09:28.643Z,67.50
2023-04-01T21:12:08.720Z,67.63
2023-04-01T21:15:13.224Z,67.69
2023-04-01T21:18:02.203Z,67.92
2023-04-01T21:21:14.893Z,67.86
2023-04-01T21:24:14.416Z,67.61
2023-04-01T21:27:10.832Z,67.81
2023-04-01T21:29:54.493Z,67.39
2023-04-01T21:32:40.383Z,67.35
2023-04-01T21:35:09.294Z,67.15
2023-04-01T21:37:59.861Z,67.23
2023-04-01T21:40:44.089Z,67.29
2023-04-01T21:44:05.266Z,67.60
2023-04-01T21:47:36.462Z,67.55
2023-04-01T21:50:46.030Z,67.28
2023-04-01T21:53:40.693Z,67.28
2023-04-01T21:57:07.986Z,67.32
2023-04-01T22:00:23.304Z,67.06
2023-04-01T22:03:30.546Z,67.14
2023-04-01T22:06:24.353Z,67.36
2023-04-01T22:09:12.805Z,67.09
2023-04-01T22:12:25.654Z,66.94
2023-04-01T22:15:06.740Z,66.77
2023-04-01T22:17:47.419Z,67.43
2023-04-01T22:20:29.178Z,67.11
2023-04-01T22:23:55.334Z,67.18
2023-04-01T22:26:50.698Z,67.37
2023-04-01T22:29:38.894Z,67.47
2023-04-01T22:32:38.157Z,67.20
2023-04-01T22:35:34.907Z,67.50
2023-04-01T22:38:26.286Z,67.24
2023-04-01T22:41:20.975Z,67.09
2023-04-01T22:43:48.936Z,67.16
2023-04-01T22:46:30.954Z,67.21
2023-04-01T22:49:34.200Z,67.04
2023-04-01T22:52:28.524Z,66.65
2023-04-01T22:55:01.337Z,66.74
2023-04-01T22:57:31.512Z,66.75
2023-04-01T23:00:13.346Z,67.05
2023-04-01T23:03:10.030Z,66.64
2023-04-01T23:06:00.970Z,66.63
2023-04-01T23:09:09.046Z,66.89
2023-04-01T23:11:55.716Z,66.92
2023-04-01T23:14:24.163Z,66.92
2023-04-01T23:17:03.842Z,66.73
2023-04-01T23:19:50.902Z,66.44
2023-04-01T23:23:01.974Z,66.51
2023-04-01T23:25:49.651Z,66.81
2023-04-01T23:28:16.727Z,66.81
2023-04-01T23:30:43.460Z,66.57
2023-04-01T23:33:20.987Z,66.63
2023-04-01T23:36:15.766Z,66.54
2023-04-01T23:38:43.802Z,66.39
2023-04-01T23:41:21.715Z,66.30
2023-04-01T23:44:03.911Z,66.15
2023-04-01T23:46:33.121Z,66.08
2023-04-01T23:49:01.826Z,65.81
2023-04-01T23:51:39.578Z,65.96
2023-04-01T23:54:22.606Z,65.66
2023-04-01T23:56:53.139Z,65.75
2023-04-01T23:59:33.913Z,65.66
